sensor_id;sensor_type;location;lat;lon;timestamp;pressure;altitude;pressure_sealevel;temperature;humidity
22580;BME280;11456;47.030;15.396;2023-03-15T00:01:38;96350.22;;;9.99;45.67
22580;BME280;11456;47.030;15.396;2023-03-15T00:04:05;96346.47;;;10.08;44.49
22580;BME280;11456;47.030;15.396;2023-03-15T00:06:32;96358.25;;;10.07;42.57
22580;BME280;11456;47.030;15.396;2023-03-15T00:09:01;96345.44;;;10.09;41.22
22580;BME280;11456;47.030;15.396;2023-03-15T00:11:28;96353.22;;;10.04;41.49
22580;BME280;11456;47.030;15.396;2023-03-15T00:13:56;96352.69;;;10.09;40.89
22580;BME280;11456;47.030;15.396;2023-03-15T00:16:23;96351.06;;;9.99;40.26
22580;BME280;11456;47.030;15.396;2023-03-15T00:18:53;96356.44;;;9.99;39.67
22580;BME280;11456;47.030;15.396;2023-03-15T00:21:20;96354.38;;;10.10;38.65
22580;BME280;11456;47.030;15.396;2023-03-15T00:23:46;96356.81;;;10.19;38.35
22580;BME280;11456;47.030;15.396;2023-03-15T00:26:13;96360.88;;;10.15;37.43
22580;BME280;11456;47.030;15.396;2023-03-15T00:28:40;96361.09;;;10.05;36.82
22580;BME280;11456;47.030;15.396;2023-03-15T00:31:19;96367.16;;;10.07;37.68
22580;BME280;11456;47.030;15.396;2023-03-15T00:33:49;96359.91;;;10.08;37.49
22580;BME280;11456;47.030;15.396;2023-03-15T00:36:21;96359.34;;;10.21;37.25
22580;BME280;11456;47.030;15.396;2023-03-15T00:38:50;96367.31;;;10.06;37.33
22580;BME280;11456;47.030;15.396;2023-03-15T00:41:18;96359.75;;;10.10;37.25
22580;BME280;11456;47.030;15.396;2023-03-15T00:43:44;96361.09;;;10.05;37.01
22580;BME280;11456;47.030;15.396;2023-03-15T00:46:14;96367.69;;;10.03;37.61
22580;BME280;11456;47.030;15.396;2023-03-15T00:48:41;96373.41;;;10.00;37.60
22580;BME280;11456;47.030;15.396;2023-03-15T00:53:36;96372.97;;;9.96;38.78
22580;BME280;11456;47.030;15.396;2023-03-15T00:56:07;96379.22;;;9.89;37.95
22580;BME280;11456;47.030;15.396;2023-03-15T00:58:34;96377.97;;;9.99;38.68
22580;BME280;11456;47.030;15.396;2023-03-15T01:01:11;96381.91;;;9.89;39.02
22580;BME280;11456;47.030;15.396;2023-03-15T01:03:38;96384.06;;;9.71;38.85
22580;BME280;11456;47.030;15.396;2023-03-15T01:06:10;96386.00;;;9.85;38.92
22580;BME280;11456;47.030;15.396;2023-03-15T01:08:37;96389.31;;;9.87;38.22
22580;BME280;11456;47.030;15.396;2023-03-15T01:11:04;96396.75;;;9.85;38.64
22580;BME280;11456;47.030;15.396;2023-03-15T01:13:31;96400.44;;;9.84;38.87
22580;BME280;11456;47.030;15.396;2023-03-15T01:15:58;96404.13;;;9.83;38.36
22580;BME280;11456;47.030;15.396;2023-03-15T01:18:25;96412.66;;;9.86;37.20
22580;BME280;11456;47.030;15.396;2023-03-15T01:20:51;96412.47;;;9.96;37.83
22580;BME280;11456;47.030;15.396;2023-03-15T01:23:18;96409.47;;;9.91;37.89
22580;BME280;11456;47.030;15.396;2023-03-15T01:25:45;96413.22;;;9.82;37.95
22580;BME280;11456;47.030;15.396;2023-03-15T01:28:12;96416.91;;;9.81;37.85
22580;BME280;11456;47.030;15.396;2023-03-15T01:30:39;96423.31;;;9.80;38.40
22580;BME280;11456;47.030;15.396;2023-03-15T01:33:06;96415.56;;;9.85;38.20
22580;BME280;11456;47.030;15.396;2023-03-15T01:35:32;96421.94;;;9.84;37.72
22580;BME280;11456;47.030;15.396;2023-03-15T01:37:59;96419.22;;;9.92;37.12
22580;BME280;11456;47.030;15.396;2023-03-15T01:40:26;96417.88;;;9.88;36.79
22580;BME280;11456;47.030;15.396;2023-03-15T01:43:16;96421.25;;;9.90;36.82
22580;BME280;11456;47.030;15.396;2023-03-15T01:48:20;96415.47;;;9.93;37.12
22580;BME280;11456;47.030;15.396;2023-03-15T01:50:49;96420.28;;;9.83;37.50
22580;BME280;11456;47.030;15.396;2023-03-15T01:53:15;96418.69;;;9.96;36.66
22580;BME280;11456;47.030;15.396;2023-03-15T01:55:42;96414.19;;;9.89;36.56
22580;BME280;11456;47.030;15.396;2023-03-15T01:58:13;96405.66;;;9.85;36.77
22580;BME280;11456;47.030;15.396;2023-03-15T02:00:42;96402.13;;;9.85;37.03
22580;BME280;11456;47.030;15.396;2023-03-15T02:03:15;96411.19;;;9.84;36.95
22580;BME280;11456;47.030;15.396;2023-03-15T02:05:47;96421.44;;;9.80;37.71
22580;BME280;11456;47.030;15.396;2023-03-15T02:08:24;96413.50;;;9.87;37.44
22580;BME280;11456;47.030;15.396;2023-03-15T02:10:52;96411.91;;;9.78;37.61
22580;BME280;11456;47.030;15.396;2023-03-15T02:13:22;96408.22;;;9.79;37.47
22580;BME280;11456;47.030;15.396;2023-03-15T02:15:52;96406.88;;;9.75;38.93
22580;BME280;11456;47.030;15.396;2023-03-15T02:18:24;96413.31;;;9.65;38.62
22580;BME280;11456;47.030;15.396;2023-03-15T02:21:12;96410.81;;;9.64;38.77
22580;BME280;11456;47.030;15.396;2023-03-15T02:23:40;96413.78;;;9.46;39.31
22580;BME280;11456;47.030;15.396;2023-03-15T02:26:21;96409.13;;;9.63;39.65
22580;BME280;11456;47.030;15.396;2023-03-15T02:28:48;96412.34;;;9.58;39.06
22580;BME280;11456;47.030;15.396;2023-03-15T02:31:18;96406.47;;;9.55;40.04
22580;BME280;11456;47.030;15.396;2023-03-15T02:33:46;96421.44;;;9.57;39.76
22580;BME280;11456;47.030;15.396;2023-03-15T02:38:47;96422.13;;;9.51;38.68
22580;BME280;11456;47.030;15.396;2023-03-15T02:41:14;96422.16;;;9.43;38.92
22580;BME280;11456;47.030;15.396;2023-03-15T02:43:42;96423.81;;;9.52;40.19
22580;BME280;11456;47.030;15.396;2023-03-15T02:46:09;96415.44;;;9.47;40.07
22580;BME280;11456;47.030;15.396;2023-03-15T02:48:36;96425.69;;;9.44;39.72
22580;BME280;11456;47.030;15.396;2023-03-15T02:51:03;96430.44;;;9.34;40.57
22580;BME280;11456;47.030;15.396;2023-03-15T02:53:30;96429.94;;;9.30;40.68
22580;BME280;11456;47.030;15.396;2023-03-15T02:55:57;96432.47;;;9.32;40.99
22580;BME280;11456;47.030;15.396;2023-03-15T02:58:23;96436.38;;;9.21;42.18
22580;BME280;11456;47.030;15.396;2023-03-15T03:00:51;96436.41;;;9.05;42.45
22580;BME280;11456;47.030;15.396;2023-03-15T03:03:18;96448.84;;;9.06;42.83
22580;BME280;11456;47.030;15.396;2023-03-15T03:05:45;96442.78;;;9.04;42.72
22580;BME280;11456;47.030;15.396;2023-03-15T03:08:11;96447.16;;;9.05;43.23
22580;BME280;11456;47.030;15.396;2023-03-15T03:10:42;96452.19;;;9.08;43.52
22580;BME280;11456;47.030;15.396;2023-03-15T03:13:09;96453.72;;;9.02;43.63
22580;BME280;11456;47.030;15.396;2023-03-15T03:15:37;96458.47;;;8.76;44.53
22580;BME280;11456;47.030;15.396;2023-03-15T03:18:04;96452.75;;;8.79;43.75
22580;BME280;11456;47.030;15.396;2023-03-15T03:20:30;96453.22;;;8.91;44.76
22580;BME280;11456;47.030;15.396;2023-03-15T03:22:57;96458.28;;;8.85;44.42
22580;BME280;11456;47.030;15.396;2023-03-15T03:25:23;96474.06;;;8.89;44.39
22580;BME280;11456;47.030;15.396;2023-03-15T03:27:52;96472.69;;;8.93;43.22
22580;BME280;11456;47.030;15.396;2023-03-15T03:30:23;96477.44;;;8.74;44.47
22580;BME280;11456;47.030;15.396;2023-03-15T03:32:50;96476.91;;;8.71;43.33
22580;BME280;11456;47.030;15.396;2023-03-15T03:35:19;96484.13;;;8.78;44.38
22580;BME280;11456;47.030;15.396;2023-03-15T03:37:45;96478.09;;;8.52;45.08
22580;BME280;11456;47.030;15.396;2023-03-15T03:40:16;96491.38;;;8.54;44.97
22580;BME280;11456;47.030;15.396;2023-03-15T03:42:43;96495.53;;;8.40;45.29
22580;BME280;11456;47.030;15.396;2023-03-15T03:45:10;96494.56;;;8.49;45.96
22580;BME280;11456;47.030;15.396;2023-03-15T03:47:41;96495.53;;;8.40;46.93
22580;BME280;11456;47.030;15.396;2023-03-15T03:50:08;96501.94;;;8.47;47.58
22580;BME280;11456;47.030;15.396;2023-03-15T03:52:35;96505.09;;;8.59;46.18
22580;BME280;11456;47.030;15.396;2023-03-15T03:55:05;96519.38;;;8.43;47.56
22580;BME280;11456;47.030;15.396;2023-03-15T03:57:32;96511.34;;;8.51;47.24
22580;BME280;11456;47.030;15.396;2023-03-15T03:59:59;96511.66;;;8.40;47.47
22580;BME280;11456;47.030;15.396;2023-03-15T04:02:29;96507.28;;;8.47;46.89
22580;BME280;11456;47.030;15.396;2023-03-15T04:04:59;96520.03;;;8.45;47.61
22580;BME280;11456;47.030;15.396;2023-03-15T04:07:26;96524.59;;;8.44;47.71
22580;BME280;11456;47.030;15.396;2023-03-15T04:09:53;96510.31;;;8.44;47.88
22580;BME280;11456;47.030;15.396;2023-03-15T04:12:20;96509.66;;;8.50;47.51
22580;BME280;11456;47.030;15.396;2023-03-15T04:14:47;96521.38;;;8.41;48.72
22580;BME280;11456;47.030;15.396;2023-03-15T04:17:15;96520.88;;;8.45;48.54
22580;BME280;11456;47.030;15.396;2023-03-15T04:19:42;96518.28;;;8.20;49.65
22580;BME280;11456;47.030;15.396;2023-03-15T04:22:14;96521.16;;;8.26;49.80
22580;BME280;11456;47.030;15.396;2023-03-15T04:24:56;96525.91;;;8.49;48.12
22580;BME280;11456;47.030;15.396;2023-03-15T04:27:35;96522.38;;;8.40;48.48
22580;BME280;11456;47.030;15.396;2023-03-15T04:30:14;96534.78;;;8.41;49.28
22580;BME280;11456;47.030;15.396;2023-03-15T04:32:47;96532.28;;;8.31;49.26
22580;BME280;11456;47.030;15.396;2023-03-15T04:35:32;96526.06;;;8.39;48.67
22580;BME280;11456;47.030;15.396;2023-03-15T04:38:39;96535.44;;;8.35;50.18
22580;BME280;11456;47.030;15.396;2023-03-15T04:41:26;96527.38;;;8.19;49.30
22580;BME280;11456;47.030;15.396;2023-03-15T04:44:04;96546.81;;;8.29;49.09
22580;BME280;11456;47.030;15.396;2023-03-15T04:47:09;96541.09;;;8.16;50.00
22580;BME280;11456;47.030;15.396;2023-03-15T04:49:54;96541.75;;;8.10;49.79
22580;BME280;11456;47.030;15.396;2023-03-15T04:52:33;96544.84;;;8.31;49.61
22580;BME280;11456;47.030;15.396;2023-03-15T04:55:22;96543.94;;;8.22;50.54
22580;BME280;11456;47.030;15.396;2023-03-15T04:58:08;96543.75;;;8.07;51.02
22580;BME280;11456;47.030;15.396;2023-03-15T05:00:53;96548.19;;;8.41;49.37
22580;BME280;11456;47.030;15.396;2023-03-15T05:03:38;96551.16;;;8.22;49.97
22580;BME280;11456;47.030;15.396;2023-03-15T05:06:24;96541.25;;;8.06;50.32
22580;BME280;11456;47.030;15.396;2023-03-15T05:09:09;96559.66;;;8.01;49.79
22580;BME280;11456;47.030;15.396;2023-03-15T05:12:18;96561.50;;;8.09;49.91
22580;BME280;11456;47.030;15.396;2023-03-15T05:15:12;96559.16;;;7.97;49.50
22580;BME280;11456;47.030;15.396;2023-03-15T05:17:57;96566.84;;;8.00;48.54
22580;BME280;11456;47.030;15.396;2023-03-15T05:20:42;96569.91;;;8.14;48.42
22580;BME280;11456;47.030;15.396;2023-03-15T05:23:17;96573.63;;;8.29;47.97
22580;BME280;11456;47.030;15.396;2023-03-15T05:26:15;96578.72;;;8.32;47.61
22580;BME280;11456;47.030;15.396;2023-03-15T05:28:52;96588.44;;;8.41;46.25
22580;BME280;11456;47.030;15.396;2023-03-15T05:31:31;96585.06;;;8.39;46.70
22580;BME280;11456;47.030;15.396;2023-03-15T05:34:11;96582.75;;;8.52;46.06
22580;BME280;11456;47.030;15.396;2023-03-15T05:36:57;96587.97;;;8.54;45.68
22580;BME280;11456;47.030;15.396;2023-03-15T05:42:39;96591.19;;;8.81;44.05
22580;BME280;11456;47.030;15.396;2023-03-15T05:45:24;96598.56;;;8.79;42.80
22580;BME280;11456;47.030;15.396;2023-03-15T05:47:53;96610.63;;;8.83;42.30
22580;BME280;11456;47.030;15.396;2023-03-15T05:50:40;96617.69;;;8.93;42.95
22580;BME280;11456;47.030;15.396;2023-03-15T05:53:24;96628.75;;;8.98;42.28
22580;BME280;11456;47.030;15.396;2023-03-15T05:56:10;96629.78;;;9.05;43.32
22580;BME280;11456;47.030;15.396;2023-03-15T05:58:55;96630.13;;;9.02;43.59
22580;BME280;11456;47.030;15.396;2023-03-15T06:01:41;96639.50;;;8.98;43.39
22580;BME280;11456;47.030;15.396;2023-03-15T06:04:18;96644.38;;;9.10;42.56
22580;BME280;11456;47.030;15.396;2023-03-15T06:06:45;96637.84;;;9.13;42.42
22580;BME280;11456;47.030;15.396;2023-03-15T06:09:12;96650.94;;;9.32;41.51
22580;BME280;11456;47.030;15.396;2023-03-15T06:11:39;96657.66;;;9.28;42.03
22580;BME280;11456;47.030;15.396;2023-03-15T06:14:09;96672.06;;;9.43;41.98
22580;BME280;11456;47.030;15.396;2023-03-15T06:16:44;96675.75;;;9.42;41.99
22580;BME280;11456;47.030;15.396;2023-03-15T06:19:10;96681.97;;;9.51;42.02
22580;BME280;11456;47.030;15.396;2023-03-15T06:21:37;96680.09;;;9.68;42.66
22580;BME280;11456;47.030;15.396;2023-03-15T06:24:10;96689.53;;;9.72;42.36
22580;BME280;11456;47.030;15.396;2023-03-15T06:26:36;96687.34;;;9.59;42.57
22580;BME280;11456;47.030;15.396;2023-03-15T06:29:04;96695.56;;;9.57;42.94
22580;BME280;11456;47.030;15.396;2023-03-15T06:31:31;96698.59;;;9.54;42.27
22580;BME280;11456;47.030;15.396;2023-03-15T06:34:03;96703.66;;;9.65;42.34
22580;BME280;11456;47.030;15.396;2023-03-15T06:36:29;96705.97;;;9.77;42.44
22580;BME280;11456;47.030;15.396;2023-03-15T06:38:57;96713.19;;;9.76;42.73
22580;BME280;11456;47.030;15.396;2023-03-15T06:41:23;96714.69;;;9.95;42.34
22580;BME280;11456;47.030;15.396;2023-03-15T06:43:55;96723.44;;;9.81;42.86
22580;BME280;11456;47.030;15.396;2023-03-15T06:46:21;96725.13;;;9.82;43.01
22580;BME280;11456;47.030;15.396;2023-03-15T06:48:48;96729.50;;;9.83;42.55
22580;BME280;11456;47.030;15.396;2023-03-15T06:51:17;96735.88;;;9.82;43.37
22580;BME280;11456;47.030;15.396;2023-03-15T06:53:44;96735.50;;;9.93;42.77
22580;BME280;11456;47.030;15.396;2023-03-15T06:56:10;96737.50;;;10.07;42.36
22580;BME280;11456;47.030;15.396;2023-03-15T06:58:37;96748.59;;;10.12;42.47
22580;BME280;11456;47.030;15.396;2023-03-15T07:01:03;96744.25;;;10.03;41.90
22580;BME280;11456;47.030;15.396;2023-03-15T07:03:30;96750.28;;;10.05;42.14
22580;BME280;11456;47.030;15.396;2023-03-15T07:05:56;96755.66;;;10.05;42.32
22580;BME280;11456;47.030;15.396;2023-03-15T07:08:23;96762.41;;;10.17;42.27
22580;BME280;11456;47.030;15.396;2023-03-15T07:10:50;96759.88;;;10.16;42.34
22580;BME280;11456;47.030;15.396;2023-03-15T07:13:17;96765.75;;;10.35;42.45
22580;BME280;11456;47.030;15.396;2023-03-15T07:15:44;96766.72;;;10.42;41.79
22580;BME280;11456;47.030;15.396;2023-03-15T07:18:11;96773.44;;;10.47;42.02
22580;BME280;11456;47.030;15.396;2023-03-15T07:20:37;96783.56;;;10.36;42.36
22580;BME280;11456;47.030;15.396;2023-03-15T07:23:04;96778.47;;;10.50;41.47
22580;BME280;11456;47.030;15.396;2023-03-15T07:25:30;96789.91;;;10.43;40.76
22580;BME280;11456;47.030;15.396;2023-03-15T07:27:57;96795.97;;;10.45;41.48
22580;BME280;11456;47.030;15.396;2023-03-15T07:30:24;96799.69;;;10.44;43.08
22580;BME280;11456;47.030;15.396;2023-03-15T07:32:50;96804.41;;;10.42;42.27
22580;BME280;11456;47.030;15.396;2023-03-15T07:35:17;96812.50;;;10.34;42.88
22580;BME280;11456;47.030;15.396;2023-03-15T07:37:44;96822.25;;;10.35;42.25
22580;BME280;11456;47.030;15.396;2023-03-15T07:40:11;96822.94;;;10.29;42.16
22580;BME280;11456;47.030;15.396;2023-03-15T07:42:38;96823.94;;;10.20;42.11
22580;BME280;11456;47.030;15.396;2023-03-15T07:45:06;96830.16;;;10.37;42.08
22580;BME280;11456;47.030;15.396;2023-03-15T07:47:33;96825.63;;;10.29;42.44
22580;BME280;11456;47.030;15.396;2023-03-15T07:50:00;96827.63;;;10.27;43.81
22580;BME280;11456;47.030;15.396;2023-03-15T07:52:27;96827.75;;;10.50;41.68
22580;BME280;11456;47.030;15.396;2023-03-15T07:54:53;96834.19;;;10.41;42.51
22580;BME280;11456;47.030;15.396;2023-03-15T07:57:20;96833.66;;;10.45;42.86
22580;BME280;11456;47.030;15.396;2023-03-15T07:59:46;96842.03;;;10.59;43.23
22580;BME280;11456;47.030;15.396;2023-03-15T08:02:13;96837.81;;;10.64;42.40
22580;BME280;11456;47.030;15.396;2023-03-15T08:04:40;96844.47;;;10.93;41.45
22580;BME280;11456;47.030;15.396;2023-03-15T08:07:06;96847.00;;;10.94;42.56
22580;BME280;11456;47.030;15.396;2023-03-15T08:09:33;96853.41;;;10.85;42.09
22580;BME280;11456;47.030;15.396;2023-03-15T08:12:00;96849.91;;;11.15;41.50
22580;BME280;11456;47.030;15.396;2023-03-15T08:14:27;96857.06;;;11.00;42.35
22580;BME280;11456;47.030;15.396;2023-03-15T08:16:54;96851.16;;;11.36;41.62
22580;BME280;11456;47.030;15.396;2023-03-15T08:19:20;96859.00;;;11.14;41.88
22580;BME280;11456;47.030;15.396;2023-03-15T08:21:47;96861.25;;;11.42;42.25
22580;BME280;11456;47.030;15.396;2023-03-15T08:24:13;96859.06;;;11.68;40.98
22580;BME280;11456;47.030;15.396;2023-03-15T08:26:40;96866.56;;;11.58;41.31
22580;BME280;11456;47.030;15.396;2023-03-15T08:29:10;96866.38;;;11.90;40.49
22580;BME280;11456;47.030;15.396;2023-03-15T08:31:36;96854.44;;;12.45;39.69
22580;BME280;11456;47.030;15.396;2023-03-15T08:34:03;96859.25;;;12.35;39.30
22580;BME280;11456;47.030;15.396;2023-03-15T08:36:30;96866.22;;;12.67;40.41
22580;BME280;11456;47.030;15.396;2023-03-15T08:38:58;96866.03;;;13.27;38.98
22580;BME280;11456;47.030;15.396;2023-03-15T08:41:24;96872.19;;;13.50;37.22
22580;BME280;11456;47.030;15.396;2023-03-15T08:43:51;96875.25;;;12.89;38.26
22580;BME280;11456;47.030;15.396;2023-03-15T08:46:17;96874.13;;;12.31;37.41
22580;BME280;11456;47.030;15.396;2023-03-15T08:48:47;96871.66;;;12.44;38.65
22580;BME280;11456;47.030;15.396;2023-03-15T08:51:14;96877.94;;;12.59;39.25
22580;BME280;11456;47.030;15.396;2023-03-15T08:53:40;96880.09;;;12.78;38.66
22580;BME280;11456;47.030;15.396;2023-03-15T08:56:07;96883.75;;;12.85;37.95
22580;BME280;11456;47.030;15.396;2023-03-15T08:58:34;96884.59;;;12.86;37.22
22580;BME280;11456;47.030;15.396;2023-03-15T09:01:01;96891.47;;;11.60;39.86
22580;BME280;11456;47.030;15.396;2023-03-15T09:03:27;96883.09;;;12.09;38.98
22580;BME280;11456;47.030;15.396;2023-03-15T09:05:54;96881.66;;;11.67;38.18
22580;BME280;11456;47.030;15.396;2023-03-15T09:08:21;96884.34;;;11.98;38.16
22580;BME280;11456;47.030;15.396;2023-03-15T09:10:54;96899.69;;;11.36;38.52
22580;BME280;11456;47.030;15.396;2023-03-15T09:13:21;96894.84;;;11.62;39.00
22580;BME280;11456;47.030;15.396;2023-03-15T09:15:51;96901.38;;;11.98;39.16
22580;BME280;11456;47.030;15.396;2023-03-15T09:18:19;96910.88;;;11.16;39.45
22580;BME280;11456;47.030;15.396;2023-03-15T09:20:46;96911.81;;;11.01;38.99
22580;BME280;11456;47.030;15.396;2023-03-15T09:23:13;96916.94;;;11.96;38.02
22580;BME280;11456;47.030;15.396;2023-03-15T09:25:39;96926.06;;;11.87;38.72
22580;BME280;11456;47.030;15.396;2023-03-15T09:28:07;96925.97;;;12.03;37.49
22580;BME280;11456;47.030;15.396;2023-03-15T09:30:34;96925.66;;;12.44;37.16
22580;BME280;11456;47.030;15.396;2023-03-15T09:33:01;96931.47;;;11.01;38.69
22580;BME280;11456;47.030;15.396;2023-03-15T09:35:28;96922.00;;;11.91;37.02
22580;BME280;11456;47.030;15.396;2023-03-15T09:37:54;96930.66;;;12.10;36.88
22580;BME280;11456;47.030;15.396;2023-03-15T09:40:28;96946.00;;;11.78;37.88
22580;BME280;11456;47.030;15.396;2023-03-15T09:43:00;96944.50;;;12.07;35.45
22580;BME280;11456;47.030;15.396;2023-03-15T09:48:26;96943.28;;;12.55;35.60
22580;BME280;11456;47.030;15.396;2023-03-15T09:50:59;96950.09;;;13.03;35.09
22580;BME280;11456;47.030;15.396;2023-03-15T09:56:00;96951.78;;;12.29;35.96
22580;BME280;11456;47.030;15.396;2023-03-15T09:58:28;96954.63;;;12.04;35.22
22580;BME280;11456;47.030;15.396;2023-03-15T10:01:04;96958.59;;;12.17;35.54
22580;BME280;11456;47.030;15.396;2023-03-15T10:04:07;96959.94;;;12.21;34.90
22580;BME280;11456;47.030;15.396;2023-03-15T10:06:28;96963.25;;;12.68;34.40
22580;BME280;11456;47.030;15.396;2023-03-15T10:08:56;96962.44;;;12.45;35.61
22580;BME280;11456;47.030;15.396;2023-03-15T10:11:27;96976.56;;;12.32;35.05
22580;BME280;11456;47.030;15.396;2023-03-15T10:14:04;96977.94;;;11.19;36.82
22580;BME280;11456;47.030;15.396;2023-03-15T10:16:41;96985.69;;;11.61;36.00
22580;BME280;11456;47.030;15.396;2023-03-15T10:19:16;96991.03;;;11.22;37.15
22580;BME280;11456;47.030;15.396;2023-03-15T10:21:49;97004.94;;;10.79;38.49
22580;BME280;11456;47.030;15.396;2023-03-15T10:24:19;97016.72;;;10.70;43.48
22580;BME280;11456;47.030;15.396;2023-03-15T10:26:47;97030.69;;;9.91;46.75
22580;BME280;11456;47.030;15.396;2023-03-15T10:29:16;97034.25;;;9.99;48.30
22580;BME280;11456;47.030;15.396;2023-03-15T10:31:45;97041.28;;;10.42;46.94
22580;BME280;11456;47.030;15.396;2023-03-15T10:34:13;97037.56;;;10.52;48.15
22580;BME280;11456;47.030;15.396;2023-03-15T10:36:49;97034.84;;;10.43;47.90
22580;BME280;11456;47.030;15.396;2023-03-15T10:39:20;97039.59;;;10.58;47.95
22580;BME280;11456;47.030;15.396;2023-03-15T10:41:48;97040.47;;;11.62;45.63
22580;BME280;11456;47.030;15.396;2023-03-15T10:46:42;97041.09;;;11.80;45.06
22580;BME280;11456;47.030;15.396;2023-03-15T10:49:27;97048.88;;;12.45;42.93
22580;BME280;11456;47.030;15.396;2023-03-15T10:51:57;97047.81;;;12.23;42.02
22580;BME280;11456;47.030;15.396;2023-03-15T10:54:24;97053.13;;;12.09;41.36
22580;BME280;11456;47.030;15.396;2023-03-15T10:57:02;97048.00;;;12.22;41.49
22580;BME280;11456;47.030;15.396;2023-03-15T10:59:30;97046.22;;;12.37;42.18
22580;BME280;11456;47.030;15.396;2023-03-15T11:02:41;97036.75;;;12.41;40.99
22580;BME280;11456;47.030;15.396;2023-03-15T11:04:49;97040.34;;;12.79;40.45
22580;BME280;11456;47.030;15.396;2023-03-15T11:07:16;97051.28;;;12.63;39.83
22580;BME280;11456;47.030;15.396;2023-03-15T11:09:44;97065.31;;;12.58;39.36
22580;BME280;11456;47.030;15.396;2023-03-15T11:12:22;97053.28;;;11.76;36.31
22580;BME280;11456;47.030;15.396;2023-03-15T11:14:51;97046.91;;;12.00;35.21
22580;BME280;11456;47.030;15.396;2023-03-15T11:17:20;97058.84;;;12.67;34.36
22580;BME280;11456;47.030;15.396;2023-03-15T11:20:00;97066.03;;;11.90;34.91
22580;BME280;11456;47.030;15.396;2023-03-15T11:22:38;97052.09;;;12.63;32.40
22580;BME280;11456;47.030;15.396;2023-03-15T11:25:11;97058.72;;;12.83;31.28
22580;BME280;11456;47.030;15.396;2023-03-15T11:27:38;97071.31;;;13.37;32.36
22580;BME280;11456;47.030;15.396;2023-03-15T11:30:05;97069.38;;;11.92;33.42
22580;BME280;11456;47.030;15.396;2023-03-15T11:32:32;97077.22;;;12.72;31.92
22580;BME280;11456;47.030;15.396;2023-03-15T11:35:00;97069.84;;;13.26;30.34
22580;BME280;11456;47.030;15.396;2023-03-15T11:42:43;97089.94;;;12.63;31.39
22580;BME280;11456;47.030;15.396;2023-03-15T11:45:15;97092.94;;;12.68;31.16
22580;BME280;11456;47.030;15.396;2023-03-15T11:47:49;97097.41;;;13.30;29.61
22580;BME280;11456;47.030;15.396;2023-03-15T11:50:17;97093.78;;;12.92;30.51
22580;BME280;11456;47.030;15.396;2023-03-15T11:52:46;97097.56;;;13.28;29.71
22580;BME280;11456;47.030;15.396;2023-03-15T11:55:22;97089.72;;;12.11;29.23
22580;BME280;11456;47.030;15.396;2023-03-15T11:57:49;97090.75;;;12.41;30.56
22580;BME280;11456;47.030;15.396;2023-03-15T12:01:23;97101.84;;;13.22;29.54
22580;BME280;11456;47.030;15.396;2023-03-15T12:03:30;97105.56;;;13.74;28.12
22580;BME280;11456;47.030;15.396;2023-03-15T12:11:08;97097.06;;;14.50;27.54
22580;BME280;11456;47.030;15.396;2023-03-15T12:13:35;97092.50;;;15.36;25.86
22580;BME280;11456;47.030;15.396;2023-03-15T12:16:03;97096.88;;;14.73;26.94
22580;BME280;11456;47.030;15.396;2023-03-15T12:18:32;97090.97;;;12.31;28.64
22580;BME280;11456;47.030;15.396;2023-03-15T12:31:42;97098.78;;;14.94;24.75
22580;BME280;11456;47.030;15.396;2023-03-15T12:34:13;97108.22;;;13.82;25.75
22580;BME280;11456;47.030;15.396;2023-03-15T12:36:41;97102.25;;;13.34;25.91
22580;BME280;11456;47.030;15.396;2023-03-15T12:41:44;97094.56;;;13.23;26.26
22580;BME280;11456;47.030;15.396;2023-03-15T12:51:53;97109.31;;;11.09;27.07
22580;BME280;11456;47.030;15.396;2023-03-15T12:54:21;97122.25;;;12.49;27.29
22580;BME280;11456;47.030;15.396;2023-03-15T12:56:49;97121.94;;;12.13;26.56
22580;BME280;11456;47.030;15.396;2023-03-15T13:02:15;97115.38;;;11.03;27.80
22580;BME280;11456;47.030;15.396;2023-03-15T13:04:46;97124.75;;;11.64;27.85
22580;BME280;11456;47.030;15.396;2023-03-15T13:07:42;97134.47;;;11.97;28.13
22580;BME280;11456;47.030;15.396;2023-03-15T13:10:25;97136.19;;;12.91;26.53
22580;BME280;11456;47.030;15.396;2023-03-15T13:13:06;97133.72;;;12.81;25.62
22580;BME280;11456;47.030;15.396;2023-03-15T13:15:35;97127.50;;;13.79;24.57
22580;BME280;11456;47.030;15.396;2023-03-15T13:18:10;97135.09;;;14.27;22.83
22580;BME280;11456;47.030;15.396;2023-03-15T13:20:51;97132.25;;;13.77;24.79
22580;BME280;11456;47.030;15.396;2023-03-15T13:23:21;97136.28;;;14.10;23.25
22580;BME280;11456;47.030;15.396;2023-03-15T13:26:02;97138.44;;;14.95;23.94
22580;BME280;11456;47.030;15.396;2023-03-15T13:28:36;97137.44;;;15.23;23.70
22580;BME280;11456;47.030;15.396;2023-03-15T13:31:09;97132.69;;;15.47;23.59
22580;BME280;11456;47.030;15.396;2023-03-15T13:33:36;97143.69;;;13.04;24.88
22580;BME280;11456;47.030;15.396;2023-03-15T13:36:04;97144.31;;;12.60;27.04
22580;BME280;11456;47.030;15.396;2023-03-15T13:41:03;97140.25;;;13.55;24.84
22580;BME280;11456;47.030;15.396;2023-03-15T13:43:38;97142.75;;;15.32;22.16
22580;BME280;11456;47.030;15.396;2023-03-15T13:46:05;97140.44;;;15.07;23.00
22580;BME280;11456;47.030;15.396;2023-03-15T13:48:33;97128.47;;;15.66;21.15
22580;BME280;11456;47.030;15.396;2023-03-15T13:51:03;97144.94;;;15.64;21.54
22580;BME280;11456;47.030;15.396;2023-03-15T13:53:31;97143.69;;;15.60;22.48
22580;BME280;11456;47.030;15.396;2023-03-15T13:56:15;97145.16;;;13.75;23.65
22580;BME280;11456;47.030;15.396;2023-03-15T13:58:43;97152.56;;;13.43;24.11
22580;BME280;11456;47.030;15.396;2023-03-15T14:01:10;97162.88;;;13.40;24.11
22580;BME280;11456;47.030;15.396;2023-03-15T14:03:39;97162.94;;;13.54;25.21
22580;BME280;11456;47.030;15.396;2023-03-15T14:06:12;97169.81;;;12.89;25.39
22580;BME280;11456;47.030;15.396;2023-03-15T14:08:46;97178.00;;;13.03;25.35
22580;BME280;11456;47.030;15.396;2023-03-15T14:11:18;97173.38;;;14.54;25.11